Columbia Regional Airport
KCOU : now visible

Airfield :











YOU CAN JOIN US ON...

 
LOGIN :

Register | Disclaimer

   EN    FR    IT 

 









Legend :    VFR   Marginal VFR   IFR   Intensive IFR   Very Intensive IFR
Visi :
Ceiling :
>= 8 km
>= 3000ft
5 to 8 km
1000 to 3000 ft
1500m to 5 km
500 to 1000 ft
800 to 1500m
200 to 500 ft
< 800m
< 200 ft
Symbols :   Thunderstorms  Fog  Heavy snow  Heavy precipitations  Wind > 20 kt







- Airport Elevation : 889 ft
- IATA code : COU


KCOU - Columbia Regional

CURRENT METAR :
  • 212154Z 20004KT 10SM SCT045 BKN120 25/22 A3002 RMK AO2 RAB15E34 SLP158 P0000 T02500217 $

EXPIRED METARs :
  • 212054Z 18008KT 10SM SCT085 SCT110 26/21 A3003 RMK AO2 SLP160 60000 T02610211 58010 $
  • 211954Z 18005KT 10SM SCT031 BKN043 OVC110 26/22 A3004 RMK AO2 RAB33E42 SLP162 P0000 T02560217 $

TAF KCOU
Valid from the 21 at 21:00 until the 22 at 18:00 UTC


212111Z 2121/2218 20011KT 5SM -SHRA VCTS SCT035CB BKN100
FM220000 17009KT P6SM VCSH BKN100
FM220900 19009KT 5SM -SHRA VCTS OVC050CB
FM221500 20011KT 4SM -TSRA BR OVC023CB
No reported NOTAMs for that airfield.



MET'MAP, your aeronautical weather chart ! - Copyright ORBIFLY December 2007 - Disclaimer

ORBIFLY MET'MAP TEAM :

Programming & Development : Alexandra Zaïnal
Concept & Development : Baudouin d'Aumeries
Co-Development & Prog : Marc-Olivier Méhu
Technical & hardware support : Manuel Goepfert

Contact : metmap@orbifly.com




SOURCES & CREDITS :

   NOAA       Earth
Advisory